Red Lodge, MT (59068)

9:10 PM MDT on April 27, 2017 (GMT -0600)
Island at Rock Creek | | Change Station

Elev 5545 ft 45.19 °N, 109.24 °W | Updated 9 seconds ago

Snow
Snow
32.4 °F
Feels Like 26 °F
N
6.8
Wind Variable Wind from WSW

Today
High -- | Low -- °F
--% Chance of Precip.
Yesterday
High -- | Low -- °F
Precip. -- in
Pressure 29.79 in
Visibility 10.0 miles
Clouds Overcast 1100 ft
Windchill 26 °F
Dew Point 32 °F
Humidity 99%
Rainfall 0.27 in
Snow Depth Not available.
6:11 AM 8:18 PM
Waxing Crescent, 4% visible
METAR KCOD 280256Z AUTO 35013KT 10SM UP OVC011 02/01 A2974 RMK AO2 UPB54 SLP087 P0000 60000 T00220006 53017 FZRANO
Pressure 29.79 in
Visibility 10.0 miles
Clouds Overcast 1100 ft
Windchill 26 °F
Dew Point 32 °F
Humidity 99%
Rainfall 0.27 in
Snow Depth Not available.
6:11 AM 8:18 PM
Waxing Crescent, 4% visible
METAR KCOD 280256Z AUTO 35013KT 10SM UP OVC011 02/01 A2974 RMK AO2 UPB54 SLP087 P0000 60000 T00220006 53017 FZRANO

Get Severe Weather Alerts

Thanks for signing up!

Be on the lookout for a verification email in your inbox.

You'll start receiving the daily forecast at 8 AM.

×

10-Day Weather Forecast

Almanac

Astronomy

Apr. 27, 2017 Rise Set
Actual Time
Civil Twilight
Nautical Twilight
Astronomical Twilight
Moon
Length of Visible Light
Length of Day
Tomorrow will be .
, % of the Moon is Illuminated

Today's Extremes

State Highs State Lows

Community

WunderPhotos

WunderBlog® & News

Nearby

Air Quality

  Air Quality AQ Index Pollutant
Not available.

Snow Depth

Station Depth Elevation

Earthquake Activity

City Distance Mag. Time & Date
Minimum magnitude displayed is 2.5.

Coastal Water Temperatures

Place Temperature

Stations

Nearby Weather Stations

Station Location Temp. Windchill Dew Point Humidity Wind Precip. Elev Updated Type
                   

Watches & Warnings

There are currently no watches in effect.